Time;durP1;ratioP1;P1;durP2;ratioP2;P2;SDS_P1;SDS_P2;PMS_P1;PMS_P2;Temp;Humidity;BMP_temperature;BMP_pressure;BME280_temperature;BME280_humidity;BME280_pressure;Samples;Min_cycle;Max_cycle;Signal;HPM_P1;HPM_P2
2023/12/06 00:01:21;;;;;;;;;15.67;15.00;;;;;-147.47;100.00;64613.53;4913059;29;28637;-78
2023/12/06 00:03:47;;;;;;;;;18.33;16.67;;;;;-147.47;100.00;64613.53;4910448;29;28717;-77
2023/12/06 00:06:12;;;;;;;;;20.33;18.33;;;;;-147.47;100.00;64613.53;4887477;29;28489;-77
2023/12/06 00:08:38;;;;;;;;;19.67;16.67;;;;;-147.47;100.00;64613.53;4911690;29;29141;-77
2023/12/06 00:11:03;;;;;;;;;17.33;15.67;;;;;-147.47;100.00;64613.53;4909065;29;28567;-75
2023/12/06 00:13:28;;;;;;;;;17.00;17.00;;;;;-147.47;100.00;64613.53;4906603;29;29066;-78
2023/12/06 00:15:54;;;;;;;;;20.00;16.33;;;;;-147.47;100.00;64613.53;4893949;29;34762;-76
2023/12/06 00:18:19;;;;;;;;;18.67;16.33;;;;;-147.47;100.00;64613.53;4893237;29;28987;-78
2023/12/06 00:20:45;;;;;;;;;15.33;15.33;;;;;-147.47;100.00;64613.53;4910739;29;28415;-76
2023/12/06 00:23:10;;;;;;;;;17.00;14.67;;;;;-147.47;100.00;64613.53;4910394;29;28564;-78
2023/12/06 00:25:35;;;;;;;;;16.00;15.00;;;;;-147.47;100.00;64613.53;4912710;29;28435;-77
2023/12/06 00:28:04;;;;;;;;;13.67;12.67;;;;;-147.47;100.00;64613.53;4897862;29;28720;-79
2023/12/06 00:30:29;;;;;;;;;12.00;12.00;;;;;-147.47;100.00;64613.53;4901542;28;28488;-77
2023/12/06 00:32:54;;;;;;;;;13.00;12.33;;;;;-147.47;100.00;64613.53;4900806;28;28997;-78
2023/12/06 00:35:20;;;;;;;;;15.00;14.00;;;;;-147.47;100.00;64613.53;4911106;28;28481;-77
2023/12/06 00:37:45;;;;;;;;;13.67;12.67;;;;;-147.47;100.00;64613.53;4905487;29;28759;-76
2023/12/06 00:40:11;;;;;;;;;14.33;13.33;;;;;-147.47;100.00;64613.53;4911032;29;28674;-77
2023/12/06 00:42:36;;;;;;;;;14.67;14.33;;;;;-147.47;100.00;64613.53;4911779;28;28621;-78
2023/12/06 00:45:02;;;;;;;;;12.67;11.67;;;;;-147.47;100.00;64613.53;4894961;29;30546;-79
2023/12/06 00:47:28;;;;;;;;;10.00;10.00;;;;;-147.47;100.00;64613.53;4894970;29;29070;-79
2023/12/06 00:49:54;;;;;;;;;13.00;12.00;;;;;-147.47;100.00;64613.53;4912888;29;28970;-79
2023/12/06 00:52:19;;;;;;;;;13.00;10.00;;;;;-147.47;100.00;64613.53;4911725;29;28620;-76
2023/12/06 00:54:45;;;;;;;;;17.00;15.00;;;;;-147.47;100.00;64613.53;4910757;28;29262;-76
2023/12/06 00:57:11;;;;;;;;;15.67;13.67;;;;;-147.47;100.00;64613.53;4911372;29;28893;-77
2023/12/06 00:59:36;;;;;;;;;15.00;15.00;;;;;-147.47;100.00;64613.53;4911783;28;28468;-77
2023/12/06 01:02:02;;;;;;;;;13.00;13.00;;;;;-147.47;100.00;64613.53;4891557;28;29498;-76
2023/12/06 01:04:27;;;;;;;;;11.00;11.00;;;;;-147.47;100.00;64613.53;4911800;28;28851;-77
2023/12/06 01:06:52;;;;;;;;;16.00;14.67;;;;;-147.47;100.00;64613.53;4916369;28;32526;-77
2023/12/06 01:09:18;;;;;;;;;14.67;13.33;;;;;-147.47;100.00;64613.53;4911620;29;28462;-77
2023/12/06 01:11:44;;;;;;;;;13.33;13.33;;;;;-147.47;100.00;64613.53;4894145;29;28527;-78
2023/12/06 01:14:09;;;;;;;;;16.00;13.00;;;;;-147.47;100.00;64613.53;4911950;28;29359;-77
2023/12/06 01:16:34;;;;;;;;;16.00;12.67;;;;;-147.47;100.00;64613.53;4913185;28;28505;-77
2023/12/06 01:18:59;;;;;;;;;20.00;17.00;;;;;-147.47;100.00;64613.53;4907997;29;41347;-77
2023/12/06 01:21:25;;;;;;;;;10.33;9.67;;;;;-147.47;100.00;64613.53;4902732;29;28733;-78
2023/12/06 01:23:50;;;;;;;;;15.00;12.00;;;;;-147.47;100.00;64613.53;4911723;28;28537;-77
2023/12/06 01:26:15;;;;;;;;;17.00;13.00;;;;;-147.47;100.00;64613.53;4910695;29;28481;-77
2023/12/06 01:28:41;;;;;;;;;13.33;13.00;;;;;-147.47;100.00;64613.53;4910017;28;28673;-77
2023/12/06 01:31:06;;;;;;;;;15.00;11.67;;;;;-147.47;100.00;64613.53;4909954;28;28897;-77
2023/12/06 01:33:31;;;;;;;;;15.00;12.00;;;;;-147.47;100.00;64613.53;4906433;29;29745;-77
2023/12/06 01:35:57;;;;;;;;;14.00;13.67;;;;;-147.47;100.00;64613.53;4911502;29;28577;-76
2023/12/06 01:38:22;;;;;;;;;12.00;11.33;;;;;-147.47;100.00;64613.53;4905639;29;28534;-78
2023/12/06 01:40:48;;;;;;;;;13.33;13.00;;;;;-147.47;100.00;64613.53;4911585;29;28958;-78
2023/12/06 01:43:14;;;;;;;;;16.00;13.67;;;;;-147.47;100.00;64613.53;4911870;28;29268;-78
2023/12/06 01:45:39;;;;;;;;;18.33;14.00;;;;;-147.47;100.00;64613.53;4894208;29;28930;-78
2023/12/06 01:48:06;;;;;;;;;15.00;15.00;;;;;-147.47;100.00;64613.53;4911622;28;28881;-77
2023/12/06 01:50:33;;;;;;;;;13.67;13.33;;;;;-147.47;100.00;64613.53;4911431;29;28576;-76
2023/12/06 01:53:00;;;;;;;;;13.00;13.00;;;;;-147.47;100.00;64613.53;4891041;29;29786;-78
2023/12/06 01:55:26;;;;;;;;;20.00;17.67;;;;;-147.47;100.00;64613.53;4898364;29;28572;-77
2023/12/06 01:57:52;;;;;;;;;16.33;14.00;;;;;-147.47;100.00;64613.53;4893622;29;28532;-77
2023/12/06 02:00:18;;;;;;;;;13.67;12.33;;;;;-147.47;100.00;64613.53;4903297;29;28952;-77
2023/12/06 02:02:44;;;;;;;;;19.33;14.33;;;;;-147.47;100.00;64613.53;4903687;28;28850;-77
2023/12/06 02:05:11;;;;;;;;;17.33;13.33;;;;;-147.47;100.00;64613.53;4909606;29;28584;-78
2023/12/06 02:07:38;;;;;;;;;19.00;14.33;;;;;-147.47;100.00;64613.53;4910121;28;28531;-78
2023/12/06 02:10:03;;;;;;;;;17.00;16.00;;;;;-147.47;100.00;64613.53;4908726;29;28529;-75
2023/12/06 02:12:29;;;;;;;;;16.33;12.00;;;;;-147.47;100.00;64613.53;4910512;28;29392;-77
2023/12/06 02:14:58;;;;;;;;;18.00;17.00;;;;;-147.47;100.00;64613.53;4910322;29;28575;-77
2023/12/06 02:17:25;;;;;;;;;18.67;15.00;;;;;-147.47;100.00;64613.53;4910582;29;28997;-78
2023/12/06 02:19:52;;;;;;;;;21.67;17.00;;;;;-147.47;100.00;64613.53;4891802;29;29463;-77
2023/12/06 02:22:18;;;;;;;;;18.00;17.00;;;;;-147.47;100.00;64613.53;4910349;28;29643;-77
2023/12/06 02:24:47;;;;;;;;;19.67;17.33;;;;;-147.47;100.00;64613.53;4910252;28;28507;-77
2023/12/06 02:27:13;;;;;;;;;20.00;17.00;;;;;-147.47;100.00;64613.53;4910066;29;28879;-77
2023/12/06 02:29:39;;;;;;;;;15.00;14.33;;;;;-147.47;100.00;64613.53;4909864;29;28992;-78
2023/12/06 02:32:05;;;;;;;;;18.33;15.33;;;;;-147.47;100.00;64613.53;4910027;29;37731;-77
2023/12/06 02:34:32;;;;;;;;;15.33;14.33;;;;;-147.47;100.00;64613.53;4916322;28;28855;-79
2023/12/06 02:37:00;;;;;;;;;16.33;14.33;;;;;-147.47;100.00;64613.53;4892726;29;28641;-77
2023/12/06 02:39:34;;;;;;;;;20.67;17.67;;;;;-147.47;100.00;64613.53;4910170;29;28748;-76
2023/12/06 02:42:00;;;;;;;;;17.67;15.67;;;;;-147.47;100.00;64613.53;4908845;29;28919;-76
2023/12/06 02:44:26;;;;;;;;;20.33;16.67;;;;;-147.47;100.00;64613.53;4911660;29;28723;-76
2023/12/06 02:46:52;;;;;;;;;14.00;11.67;;;;;-147.47;100.00;64613.53;4911578;29;28689;-78
2023/12/06 02:49:17;;;;;;;;;17.00;12.67;;;;;-147.47;100.00;64613.53;4911489;29;28471;-77
2023/12/06 02:51:43;;;;;;;;;18.33;14.33;;;;;-147.47;100.00;64613.53;4911223;29;28455;-79
2023/12/06 02:54:08;;;;;;;;;16.00;14.00;;;;;-147.47;100.00;64613.53;4885797;28;29158;-75
2023/12/06 02:56:34;;;;;;;;;14.00;12.67;;;;;-147.47;100.00;64613.53;4919280;28;28806;-77
2023/12/06 02:59:00;;;;;;;;;14.67;11.33;;;;;-147.47;100.00;64613.53;4910266;29;28680;-77
2023/12/06 03:01:25;;;;;;;;;16.00;14.00;;;;;-147.47;100.00;64613.53;4907105;29;28601;-77
2023/12/06 03:03:50;;;;;;;;;17.00;14.67;;;;;-147.47;100.00;64613.53;4912225;28;38402;-78
2023/12/06 03:06:17;;;;;;;;;19.33;16.00;;;;;-147.47;100.00;64613.53;4912293;29;34481;-77
2023/12/06 03:08:42;;;;;;;;;17.00;14.67;;;;;-147.47;100.00;64613.53;4912565;28;29010;-79
2023/12/06 03:11:08;;;;;;;;;15.33;13.33;;;;;-147.47;100.00;64613.53;4908026;29;28651;-79
2023/12/06 03:13:33;;;;;;;;;13.33;12.67;;;;;-147.47;100.00;64613.53;4914465;28;28583;-78
2023/12/06 03:15:58;;;;;;;;;17.33;14.00;;;;;-147.47;100.00;64613.53;4913119;29;28665;-79
2023/12/06 03:18:24;;;;;;;;;15.00;15.00;;;;;-147.47;100.00;64613.53;4914325;29;42025;-78
2023/12/06 03:20:49;;;;;;;;;18.00;15.67;;;;;-147.47;100.00;64613.53;4896786;29;30091;-78
2023/12/06 03:23:14;;;;;;;;;14.33;11.33;;;;;-147.47;100.00;64613.53;4913687;29;28517;-76
2023/12/06 03:25:40;;;;;;;;;14.00;13.00;;;;;-147.47;100.00;64613.53;4913296;29;28734;-77
2023/12/06 03:28:05;;;;;;;;;17.33;15.00;;;;;-147.47;100.00;64613.53;4913548;29;28583;-78
2023/12/06 03:30:31;;;;;;;;;14.33;14.33;;;;;-147.47;100.00;64613.53;4905254;29;30454;-77
2023/12/06 03:32:56;;;;;;;;;19.67;14.33;;;;;-147.47;100.00;64613.53;4914135;29;28961;-76
2023/12/06 03:35:21;;;;;;;;;13.00;12.00;;;;;-147.47;100.00;64613.53;4902279;28;28619;-78
2023/12/06 03:37:47;;;;;;;;;18.33;14.00;;;;;-147.47;100.00;64613.53;4906456;29;28820;-78
2023/12/06 03:40:12;;;;;;;;;20.33;16.00;;;;;-147.47;100.00;64613.53;4888651;29;29638;-79
2023/12/06 03:42:37;;;;;;;;;16.00;15.00;;;;;-147.47;100.00;64613.53;4914738;28;28597;-76
2023/12/06 03:45:04;;;;;;;;;19.33;14.67;;;;;-147.47;100.00;64613.53;4914091;28;28785;-78
2023/12/06 03:47:29;;;;;;;;;20.00;16.33;;;;;-147.47;100.00;64613.53;4888545;29;29738;-77
2023/12/06 03:49:54;;;;;;;;;21.33;17.00;;;;;-147.47;100.00;64613.53;4907119;29;28628;-78
2023/12/06 03:52:21;;;;;;;;;22.67;18.33;;;;;-147.47;100.00;64613.53;4914616;29;28415;-78
2023/12/06 03:54:47;;;;;;;;;24.00;17.33;;;;;-147.47;100.00;64613.53;4894562;29;28991;-77
2023/12/06 03:57:13;;;;;;;;;15.00;14.33;;;;;-147.47;100.00;64613.53;4908710;29;28599;-76
2023/12/06 03:59:38;;;;;;;;;15.33;14.33;;;;;-147.47;100.00;64613.53;4914906;29;29463;-77
2023/12/06 04:02:03;;;;;;;;;19.33;14.00;;;;;-147.47;100.00;64613.53;4912071;29;28648;-78
2023/12/06 04:04:29;;;;;;;;;14.33;12.00;;;;;-147.47;100.00;64613.53;4912187;29;28506;-79
2023/12/06 04:06:54;;;;;;;;;13.67;13.00;;;;;-147.47;100.00;64613.53;4897106;29;28962;-77
2023/12/06 04:09:20;;;;;;;;;13.00;11.67;;;;;-147.47;100.00;64613.53;4924861;28;28415;-76
2023/12/06 04:11:45;;;;;;;;;16.33;11.33;;;;;-147.47;100.00;64613.53;4896575;29;29963;-77
2023/12/06 04:14:10;;;;;;;;;17.00;11.67;;;;;-147.47;100.00;64613.53;4914225;29;28621;-77
2023/12/06 04:16:37;;;;;;;;;16.00;15.00;;;;;-147.47;100.00;64613.53;4915782;29;28956;-78
2023/12/06 04:19:05;;;;;;;;;10.00;9.33;;;;;-147.47;100.00;64613.53;4916518;29;28558;-75
2023/12/06 04:21:30;;;;;;;;;16.00;14.00;;;;;-147.47;100.00;64613.53;4906260;29;28583;-77
2023/12/06 04:23:56;;;;;;;;;17.00;14.33;;;;;-147.47;100.00;64613.53;4912894;28;28243;-75
2023/12/06 04:26:21;;;;;;;;;15.00;13.00;;;;;-147.47;100.00;64613.53;4918328;28;28584;-74
2023/12/06 04:28:47;;;;;;;;;15.33;12.00;;;;;-147.47;100.00;64613.53;4912227;29;28926;-76
2023/12/06 04:31:16;;;;;;;;;14.00;8.00;;;;;-147.47;100.00;64613.53;4914064;29;28470;-75
2023/12/06 04:33:41;;;;;;;;;17.00;14.33;;;;;-147.47;100.00;64613.53;4914521;29;28795;-77
2023/12/06 04:36:07;;;;;;;;;12.67;11.67;;;;;-147.47;100.00;64613.53;4914297;29;28932;-76
2023/12/06 04:38:32;;;;;;;;;15.67;14.67;;;;;-147.47;100.00;64613.53;4914695;29;28654;-78
2023/12/06 04:40:58;;;;;;;;;17.67;14.33;;;;;-147.47;100.00;64613.53;4915473;28;28515;-76
2023/12/06 04:43:23;;;;;;;;;18.00;13.33;;;;;-147.47;100.00;64613.53;4915165;28;28513;-78
2023/12/06 04:45:48;;;;;;;;;19.67;15.33;;;;;-147.47;100.00;64613.53;4906231;29;37780;-79
2023/12/06 04:48:14;;;;;;;;;15.00;14.00;;;;;-147.47;100.00;64613.53;4913930;28;28531;-77
2023/12/06 04:50:39;;;;;;;;;15.33;14.00;;;;;-147.47;100.00;64613.53;4912366;29;28470;-76
2023/12/06 04:53:05;;;;;;;;;16.00;14.33;;;;;-147.47;100.00;64613.53;4912780;29;29195;-77
2023/12/06 04:55:30;;;;;;;;;13.00;11.67;;;;;-147.47;100.00;64613.53;4895379;29;32028;-77
2023/12/06 04:57:55;;;;;;;;;16.67;13.33;;;;;-147.47;100.00;64613.53;4912444;29;28856;-77
2023/12/06 05:00:21;;;;;;;;;15.33;13.67;;;;;-147.47;100.00;64613.53;4912323;29;28554;-75
2023/12/06 05:02:47;;;;;;;;;17.33;13.67;;;;;-147.47;100.00;64613.53;4912771;28;28420;-77
2023/12/06 05:05:12;;;;;;;;;15.00;13.00;;;;;-147.47;100.00;64613.53;4895157;29;29348;-80
2023/12/06 05:07:38;;;;;;;;;19.00;12.33;;;;;-147.47;100.00;64613.53;4894829;29;28554;-78
2023/12/06 05:10:05;;;;;;;;;15.00;13.00;;;;;-147.47;100.00;64613.53;4909724;28;28434;-77
2023/12/06 05:12:30;;;;;;;;;16.00;14.00;;;;;-147.47;100.00;64613.53;4912036;28;28427;-76
2023/12/06 05:14:55;;;;;;;;;15.33;13.67;;;;;-147.47;100.00;64613.53;4908911;28;28513;-78
2023/12/06 05:17:21;;;;;;;;;16.00;14.67;;;;;-147.47;100.00;64613.53;4911050;28;29050;-78
2023/12/06 05:19:48;;;;;;;;;20.00;17.00;;;;;-147.47;100.00;64613.53;4908997;29;29505;-76
2023/12/06 05:22:14;;;;;;;;;17.33;15.00;;;;;-147.47;100.00;64613.53;4891729;29;28754;-76
2023/12/06 05:24:40;;;;;;;;;15.00;14.67;;;;;-147.47;100.00;64613.53;4905274;29;28586;-76
2023/12/06 05:27:05;;;;;;;;;15.67;14.33;;;;;-147.47;100.00;64613.53;4912363;29;29047;-77
2023/12/06 05:29:32;;;;;;;;;18.67;17.00;;;;;-147.47;100.00;64613.53;4911011;29;28551;-79
2023/12/06 05:31:57;;;;;;;;;26.50;24.00;;;;;-147.47;100.00;64613.53;4911615;28;28646;-78
2023/12/06 05:34:23;;;;;;;;;22.33;20.67;;;;;-147.47;100.00;64613.53;4911994;29;28665;-79
2023/12/06 05:36:49;;;;;;;;;36.50;28.75;;;;;-147.47;100.00;64613.53;4912894;28;28937;-77
2023/12/06 05:39:14;;;;;;;;;30.75;28.00;;;;;-147.47;100.00;64613.53;4912539;29;28534;-77
2023/12/06 05:41:40;;;;;;;;;23.33;18.33;;;;;-147.47;100.00;64613.53;4912202;29;28474;-82
2023/12/06 05:44:05;;;;;;;;;17.67;15.00;;;;;-147.47;100.00;64613.53;4911623;29;28450;-77
2023/12/06 05:46:31;;;;;;;;;32.67;29.33;;;;;-147.47;100.00;64613.53;4899991;29;28501;-77
2023/12/06 05:48:56;;;;;;;;;29.00;21.00;;;;;-147.47;100.00;64613.53;4912921;29;28715;-77
2023/12/06 05:51:22;;;;;;;;;26.67;23.00;;;;;-147.47;100.00;64613.53;4913122;29;28481;-78
2023/12/06 05:53:49;;;;;;;;;19.00;17.00;;;;;-147.47;100.00;64613.53;4910105;29;28928;-78
2023/12/06 05:56:14;;;;;;;;;18.00;14.67;;;;;-147.47;100.00;64613.53;4910379;29;28622;-78
2023/12/06 05:58:41;;;;;;;;;16.00;13.00;;;;;-147.47;100.00;64613.53;4912217;28;28582;-77
2023/12/06 06:01:07;;;;;;;;;17.67;14.00;;;;;-147.47;100.00;64613.53;4911571;29;28531;-77
2023/12/06 06:03:33;;;;;;;;;13.00;11.00;;;;;-147.47;100.00;64613.53;4913960;28;29115;-81
2023/12/06 06:06:05;;;;;;;;;16.67;15.67;;;;;-147.47;100.00;64613.53;4912315;28;28505;-79
2023/12/06 06:08:31;;;;;;;;;14.67;12.33;;;;;-147.47;100.00;64613.53;4912496;29;28546;-79
2023/12/06 06:10:56;;;;;;;;;14.33;11.33;;;;;-147.47;100.00;64613.53;4910716;28;28430;-78
2023/12/06 06:13:21;;;;;;;;;16.00;15.67;;;;;-147.47;100.00;64613.53;4921601;28;55904;-78
2023/12/06 06:15:47;;;;;;;;;18.33;12.67;;;;;-147.47;100.00;64613.53;4910563;28;28497;-77
2023/12/06 06:18:12;;;;;;;;;14.00;10.33;;;;;-147.47;100.00;64613.53;4911865;29;28486;-79
2023/12/06 06:20:38;;;;;;;;;16.00;13.00;;;;;-147.47;100.00;64613.53;4911492;29;28506;-77
2023/12/06 06:23:03;;;;;;;;;17.67;14.00;;;;;-147.47;100.00;64613.53;4887334;29;30537;-79
2023/12/06 06:25:29;;;;;;;;;17.00;13.33;;;;;-147.47;100.00;64613.53;4893847;29;29871;-77
2023/12/06 06:27:54;;;;;;;;;12.00;12.00;;;;;-147.47;100.00;64613.53;4891412;29;28632;-80
2023/12/06 06:30:19;;;;;;;;;13.33;11.67;;;;;-147.47;100.00;64613.53;4912575;28;29672;-77
2023/12/06 06:32:45;;;;;;;;;11.67;10.00;;;;;-147.47;100.00;64613.53;4915695;28;28024;-79
2023/12/06 06:35:10;;;;;;;;;18.00;15.67;;;;;-147.47;100.00;64613.53;4908800;29;28525;-78
2023/12/06 06:37:35;;;;;;;;;18.00;12.33;;;;;-147.47;100.00;64613.53;4908762;29;28366;-79
2023/12/06 06:40:02;;;;;;;;;17.00;15.00;;;;;-147.47;100.00;64613.53;4909169;29;28538;-79
2023/12/06 06:42:27;;;;;;;;;13.00;12.33;;;;;-147.47;100.00;64613.53;4903889;28;29008;-75
2023/12/06 06:44:55;;;;;;;;;12.67;11.33;;;;;-147.47;100.00;64613.53;4907171;29;29254;-75
2023/12/06 06:47:21;;;;;;;;;18.67;16.00;;;;;-147.47;100.00;64613.53;4895324;28;29120;-74
2023/12/06 06:49:46;;;;;;;;;14.33;13.33;;;;;-147.47;100.00;64613.53;4914161;28;28844;-76
2023/12/06 06:52:12;;;;;;;;;15.33;12.33;;;;;-147.47;100.00;64613.53;4908241;28;29520;-78
2023/12/06 06:54:37;;;;;;;;;15.00;14.00;;;;;-147.47;100.00;64613.53;4906907;28;29518;-79
2023/12/06 06:57:03;;;;;;;;;14.00;13.67;;;;;-147.47;100.00;64613.53;4897616;29;28505;-79
2023/12/06 06:59:28;;;;;;;;;17.00;15.67;;;;;-147.47;100.00;64613.53;4902048;29;28586;-78
2023/12/06 07:01:55;;;;;;;;;18.00;15.00;;;;;-147.47;100.00;64613.53;4908907;29;29785;-77
2023/12/06 07:04:20;;;;;;;;;22.33;19.67;;;;;-147.47;100.00;64613.53;4910838;29;28923;-77
2023/12/06 07:06:46;;;;;;;;;18.67;15.67;;;;;-147.47;100.00;64613.53;4895134;29;28700;-78
2023/12/06 07:09:11;;;;;;;;;21.67;21.00;;;;;-147.47;100.00;64613.53;4894366;29;28431;-74
2023/12/06 07:11:36;;;;;;;;;22.67;18.33;;;;;-147.47;100.00;64613.53;4898593;28;28587;-74
2023/12/06 07:14:03;;;;;;;;;21.67;17.67;;;;;-147.47;100.00;64613.53;4910318;28;28649;-78
2023/12/06 07:16:28;;;;;;;;;18.67;17.33;;;;;-147.47;100.00;64613.53;4906040;29;28537;-79
2023/12/06 07:18:53;;;;;;;;;20.33;15.67;;;;;-147.47;100.00;64613.53;4893002;29;28609;-79
2023/12/06 07:21:19;;;;;;;;;21.33;19.67;;;;;-147.47;100.00;64613.53;4914485;28;28516;-79
2023/12/06 07:23:47;;;;;;;;;20.33;16.67;;;;;-147.47;100.00;64613.53;4911220;28;28624;-81
2023/12/06 07:26:12;;;;;;;;;17.33;17.00;;;;;-147.47;100.00;64613.53;4910418;28;28550;-77
2023/12/06 07:28:40;;;;;;;;;24.67;20.33;;;;;-147.47;100.00;64613.53;4910621;29;28688;-80
2023/12/06 07:31:06;;;;;;;;;25.50;21.25;;;;;-147.47;100.00;64613.53;4912496;28;29133;-77
2023/12/06 07:33:42;;;;;;;;;22.75;20.75;;;;;-147.47;100.00;64613.53;4898484;29;30432;-82
2023/12/06 07:36:10;;;;;;;;;19.33;18.00;;;;;-147.47;100.00;64613.53;4892707;29;28661;-78
2023/12/06 07:38:36;;;;;;;;;25.67;22.33;;;;;-147.47;100.00;64613.53;4907902;29;29055;-77
2023/12/06 07:41:02;;;;;;;;;23.67;20.00;;;;;-147.47;100.00;64613.53;4901820;28;29757;-76
2023/12/06 07:43:27;;;;;;;;;18.33;17.67;;;;;-147.47;100.00;64613.53;4900455;29;29142;-76
2023/12/06 07:45:53;;;;;;;;;21.00;19.33;;;;;-147.47;100.00;64613.53;4912048;29;28745;-76
2023/12/06 07:48:18;;;;;;;;;22.33;21.33;;;;;-147.47;100.00;64613.53;4914212;28;29420;-76
2023/12/06 07:50:43;;;;;;;;;20.00;18.67;;;;;-147.47;100.00;64613.53;4901169;29;29643;-76
2023/12/06 07:53:09;;;;;;;;;21.00;18.67;;;;;-147.47;100.00;64613.53;4910875;29;29058;-75
2023/12/06 07:55:35;;;;;;;;;22.67;20.00;;;;;-147.47;100.00;64613.53;4892004;29;28915;-75
2023/12/06 07:58:00;;;;;;;;;26.00;22.33;;;;;-147.47;100.00;64613.53;4912896;28;28605;-76
2023/12/06 08:00:25;;;;;;;;;23.67;21.33;;;;;-147.47;100.00;64613.53;4918733;28;28716;-75
2023/12/06 08:02:51;;;;;;;;;22.50;19.75;;;;;-147.47;100.00;64613.53;4911630;29;29539;-76
2023/12/06 08:05:19;;;;;;;;;24.67;24.00;;;;;-147.47;100.00;64613.53;4891792;29;28903;-75
2023/12/06 08:07:44;;;;;;;;;22.33;20.67;;;;;-147.47;100.00;64613.53;4919691;28;28449;-77
2023/12/06 08:10:12;;;;;;;;;26.25;19.00;;;;;-147.47;100.00;64613.53;4911501;29;28785;-76
2023/12/06 08:12:38;;;;;;;;;26.00;24.00;;;;;-147.47;100.00;64613.53;4878776;29;30762;-77
2023/12/06 08:15:05;;;;;;;;;29.00;23.33;;;;;-147.47;100.00;64613.53;4911921;28;28474;-77
2023/12/06 08:17:32;;;;;;;;;26.67;23.67;;;;;-147.47;100.00;64613.53;4906293;29;28491;-77
2023/12/06 08:20:00;;;;;;;;;29.75;27.00;;;;;-147.47;100.00;64613.53;4907208;28;28772;-78
2023/12/06 08:22:28;;;;;;;;;33.00;26.33;;;;;-147.47;100.00;64613.53;4906139;29;29466;-82
2023/12/06 08:24:57;;;;;;;;;23.33;20.67;;;;;-147.47;100.00;64613.53;4912893;28;28515;-79
2023/12/06 08:27:25;;;;;;;;;25.33;23.67;;;;;-147.47;100.00;64613.53;4922088;28;28979;-78
2023/12/06 08:29:50;;;;;;;;;32.00;26.00;;;;;-147.47;100.00;64613.53;4914996;28;28578;-79
2023/12/06 08:32:15;;;;;;;;;32.33;26.33;;;;;-147.47;100.00;64613.53;4914031;28;29151;-78
2023/12/06 08:34:41;;;;;;;;;30.33;25.33;;;;;-147.47;100.00;64613.53;4911458;29;28633;-78
2023/12/06 08:37:06;;;;;;;;;32.00;25.50;;;;;-147.47;100.00;64613.53;4913993;28;28505;-78
2023/12/06 08:39:34;;;;;;;;;28.00;23.50;;;;;-147.47;100.00;64613.53;4908982;29;28522;-81
2023/12/06 08:42:00;;;;;;;;;28.67;24.00;;;;;-147.47;100.00;64613.53;4906396;28;28608;-79
2023/12/06 08:44:25;;;;;;;;;26.33;22.33;;;;;-147.47;100.00;64613.53;4913017;28;29539;-77
2023/12/06 08:46:50;;;;;;;;;21.67;21.00;;;;;-147.47;100.00;64613.53;4912909;29;28495;-82
2023/12/06 08:49:16;;;;;;;;;28.00;22.67;;;;;-147.47;100.00;64613.53;4885391;29;29244;-81
2023/12/06 08:51:41;;;;;;;;;26.00;23.67;;;;;-147.47;100.00;64613.53;4912208;29;28454;-77
2023/12/06 08:54:09;;;;;;;;;23.67;19.67;;;;;-147.47;100.00;64613.53;4912675;29;28542;-79
2023/12/06 08:56:34;;;;;;;;;26.67;21.67;;;;;-147.47;100.00;64613.53;4912714;28;28851;-77
2023/12/06 08:59:00;;;;;;;;;18.00;17.67;;;;;-147.47;100.00;64613.53;4893635;29;28712;-78
2023/12/06 09:01:25;;;;;;;;;20.67;18.67;;;;;-147.47;100.00;64613.53;4903910;28;29890;-80
2023/12/06 09:03:50;;;;;;;;;19.00;19.00;;;;;-147.47;100.00;64613.53;4919208;28;28573;-77
2023/12/06 09:06:17;;;;;;;;;18.67;17.00;;;;;-147.47;100.00;64613.53;4909403;29;28485;-76
2023/12/06 09:08:43;;;;;;;;;21.67;20.67;;;;;-147.47;100.00;64613.53;4909561;28;28539;-78
2023/12/06 09:11:08;;;;;;;;;22.33;17.67;;;;;-147.47;100.00;64613.53;4910758;28;29083;-79
2023/12/06 09:13:33;;;;;;;;;18.00;15.33;;;;;-147.47;100.00;64613.53;4910235;28;28439;-79
2023/12/06 09:15:59;;;;;;;;;17.67;16.67;;;;;-147.47;100.00;64613.53;4911758;29;28469;-77
2023/12/06 09:18:24;;;;;;;;;18.00;16.67;;;;;-147.47;100.00;64613.53;4910775;29;28914;-77
2023/12/06 09:20:50;;;;;;;;;19.00;16.67;;;;;-147.47;100.00;64613.53;4905541;28;28887;-79
2023/12/06 09:23:15;;;;;;;;;23.00;18.67;;;;;-147.47;100.00;64613.53;4897403;29;30338;-80
2023/12/06 09:25:40;;;;;;;;;21.67;20.00;;;;;-147.47;100.00;64613.53;4909776;29;28772;-79
2023/12/06 09:28:06;;;;;;;;;17.67;14.33;;;;;-147.47;100.00;64613.53;4907006;29;29007;-77
2023/12/06 09:30:31;;;;;;;;;21.00;16.33;;;;;-147.47;100.00;64613.53;4913361;29;29296;-75
2023/12/06 09:32:56;;;;;;;;;19.33;18.67;;;;;-147.47;100.00;64613.53;4913694;29;28658;-80
2023/12/06 09:35:23;;;;;;;;;17.33;17.33;;;;;-147.47;100.00;64613.53;4916139;29;28438;-80
2023/12/06 09:37:48;;;;;;;;;23.67;19.67;;;;;-147.47;100.00;64613.53;4918886;28;28688;-78
2023/12/06 09:40:14;;;;;;;;;22.67;19.33;;;;;-147.47;100.00;64613.53;4909082;28;28527;-80
2023/12/06 09:42:44;;;;;;;;;28.00;22.67;;;;;-147.47;100.00;64613.53;4892362;29;28723;-80
2023/12/06 09:45:10;;;;;;;;;18.67;18.00;;;;;-147.47;100.00;64613.53;4896296;29;28441;-79
2023/12/06 09:47:36;;;;;;;;;25.33;22.00;;;;;-147.47;100.00;64613.53;4891644;29;29458;-80
2023/12/06 09:50:01;;;;;;;;;23.67;19.33;;;;;-147.47;100.00;64613.53;4911727;29;28521;-77
2023/12/06 09:52:28;;;;;;;;;26.67;21.33;;;;;-147.47;100.00;64613.53;4903931;29;28455;-77
2023/12/06 09:54:55;;;;;;;;;27.67;24.00;;;;;-147.47;100.00;64613.53;4905721;28;28506;-77
2023/12/06 09:57:21;;;;;;;;;26.00;22.00;;;;;-147.47;100.00;64613.53;4891672;29;29193;-76
2023/12/06 09:59:46;;;;;;;;;28.67;23.67;;;;;-147.47;100.00;64613.53;4891780;29;29674;-78
2023/12/06 10:02:12;;;;;;;;;12.33;12.33;;;;;-147.47;100.00;64613.53;4909055;28;28789;-77
2023/12/06 10:04:37;;;;;;;;;22.67;19.67;;;;;-147.47;100.00;64613.53;4901306;28;28800;-79
2023/12/06 10:07:03;;;;;;;;;24.33;23.67;;;;;-147.47;100.00;64613.53;4910741;29;28553;-78
2023/12/06 10:09:28;;;;;;;;;19.00;17.00;;;;;-147.47;100.00;64613.53;4909575;29;28472;-76
2023/12/06 10:12:08;;;;;;;;;21.67;18.33;;;;;-147.47;100.00;64613.53;4906340;28;28446;-77
2023/12/06 10:14:34;;;;;;;;;26.33;22.33;;;;;-147.47;100.00;64613.53;4891513;29;28544;-77
2023/12/06 10:17:00;;;;;;;;;22.33;19.67;;;;;-147.47;100.00;64613.53;4891565;29;30167;-78
2023/12/06 10:19:26;;;;;;;;;20.00;14.67;;;;;-147.47;100.00;64613.53;4889848;29;29776;-74
2023/12/06 10:21:53;;;;;;;;;24.67;21.67;;;;;-147.47;100.00;64613.53;4905555;28;28674;-75
2023/12/06 10:24:18;;;;;;;;;27.67;20.00;;;;;-147.47;100.00;64613.53;4903612;28;28546;-75
2023/12/06 10:26:43;;;;;;;;;23.33;21.33;;;;;-147.47;100.00;64613.53;4911487;29;51601;-77
2023/12/06 10:29:09;;;;;;;;;21.00;17.67;;;;;-147.47;100.00;64613.53;4905983;28;28518;-78
2023/12/06 10:31:41;;;;;;;;;19.00;17.00;;;;;-147.47;100.00;64613.53;4907270;28;28910;-79
2023/12/06 10:34:08;;;;;;;;;19.33;15.33;;;;;-147.47;100.00;64613.53;4898851;29;28553;-75
2023/12/06 10:36:35;;;;;;;;;20.67;16.33;;;;;-147.47;100.00;64613.53;4905967;28;28695;-76
2023/12/06 10:39:03;;;;;;;;;19.33;18.00;;;;;-147.47;100.00;64613.53;4909436;28;28517;-74
2023/12/06 10:41:31;;;;;;;;;21.00;20.67;;;;;-147.47;100.00;64613.53;4904458;28;28551;-75
2023/12/06 10:43:59;;;;;;;;;19.67;19.67;;;;;-147.47;100.00;64613.53;4891663;29;28591;-76
2023/12/06 10:46:26;;;;;;;;;18.33;18.33;;;;;-147.47;100.00;64613.53;4906470;28;28655;-75
2023/12/06 10:48:53;;;;;;;;;20.00;19.00;;;;;-147.47;100.00;64613.53;4905615;28;28628;-75